Terminal Aerodrome Forecast
Issued by NWS

Home | Current Version | Previous Version | Text Only | Print | Product List | Glossary On
Versions: 1 2 3 4 5 6 7 8 9 10 11 12 13 14 15 16
660
FTUS43 KPAH 171120
TAFCGI
TAF
KCGI 171120Z 1712/1812 00000KT 1/4SM FG VV002
      TEMPO 1712/1713 3SM BR SCT002
     FM171400 16005KT P6SM SCT250
     FM171800 17005KT P6SM BKN250
     FM180000 VRB02KT P6SM SCT250
     FM180800 00000KT 3SM BR BCFG SKC=

USA.gov is the U.S. government's official web portal to all federal, state and local government web resources and services.